createdAt,value
2019-03-01T00:01:17.399Z,7.58
2019-03-01T00:07:57.947Z,6.92
2019-03-01T00:14:44.606Z,8.05
2019-03-01T00:21:34.743Z,7.83
2019-03-01T00:28:15.989Z,4.80
2019-03-01T00:34:36.142Z,5.08
2019-03-01T00:41:11.530Z,6.47
2019-03-01T00:47:15.849Z,5.53
2019-03-01T00:53:21.067Z,7.08
2019-03-01T00:59:25.286Z,4.78
2019-03-01T01:05:29.477Z,4.90
2019-03-01T01:11:33.710Z,7.53
2019-03-01T01:17:37.933Z,7.08
2019-03-01T01:23:42.209Z,4.80
2019-03-01T01:29:46.500Z,9.23
2019-03-01T01:35:50.818Z,6.90
2019-03-01T01:41:55.032Z,10.05
2019-03-01T01:47:59.456Z,6.15
2019-03-01T01:54:03.688Z,14.85
2019-03-01T02:00:08.539Z,14.70
2019-03-01T02:06:12.885Z,13.05
2019-03-01T02:12:17.208Z,13.03
2019-03-01T02:18:21.512Z,8.08
2019-03-01T02:24:25.757Z,11.83
2019-03-01T02:30:30.395Z,8.43
2019-03-01T02:36:36.089Z,10.13
2019-03-01T02:42:40.316Z,10.08
2019-03-01T02:48:44.598Z,11.28
2019-03-01T02:54:49.015Z,24.80
2019-03-01T03:00:53.277Z,41.98
2019-03-01T03:07:13.079Z,55.05
2019-03-01T03:13:17.279Z,73.52
2019-03-01T03:19:21.618Z,86.37
2019-03-01T03:25:25.890Z,60.65
2019-03-01T03:31:30.268Z,78.55
2019-03-01T03:37:34.568Z,64.47
2019-03-01T03:43:38.901Z,62.25
2019-03-01T03:49:43.194Z,58.73
2019-03-01T03:55:47.388Z,48.38
2019-03-01T04:01:51.778Z,49.03
2019-03-01T04:07:56.445Z,38.65
2019-03-01T04:14:00.810Z,35.68
2019-03-01T04:20:06.005Z,24.95
2019-03-01T04:26:10.279Z,21.23
2019-03-01T04:32:14.549Z,19.37
2019-03-01T04:38:18.891Z,23.52
2019-03-01T04:44:23.182Z,26.73
2019-03-01T04:50:27.451Z,31.20
2019-03-01T04:56:31.682Z,31.57
2019-03-01T05:02:35.977Z,29.37
2019-03-01T05:08:40.246Z,21.30
2019-03-01T05:14:44.659Z,31.65
2019-03-01T05:20:49.034Z,30.20
2019-03-01T05:26:53.258Z,27.75
2019-03-01T05:32:57.526Z,29.72
2019-03-01T05:39:01.812Z,21.62
2019-03-01T05:45:08.016Z,15.90
2019-03-01T05:51:12.300Z,21.73
2019-03-01T05:57:16.631Z,20.27
2019-03-01T06:03:42.130Z,22.13
2019-03-01T06:10:39.632Z,18.98
2019-03-01T06:17:33.794Z,23.52
2019-03-01T06:24:02.478Z,18.80
2019-03-01T06:30:52.042Z,23.65
2019-03-01T06:37:38.800Z,27.13
2019-03-01T06:44:01.957Z,19.20
2019-03-01T06:50:16.130Z,24.10
2019-03-01T06:56:20.415Z,24.90
2019-03-01T07:02:43.672Z,24.05
2019-03-01T07:08:47.960Z,17.73
2019-03-01T07:14:52.212Z,22.58
2019-03-01T07:20:56.553Z,25.68
2019-03-01T07:27:00.897Z,25.52
2019-03-01T07:33:05.143Z,21.30
2019-03-01T07:39:10.387Z,26.00
2019-03-01T07:45:14.835Z,25.88
2019-03-01T07:51:19.369Z,27.37
2019-03-01T07:57:23.718Z,25.17
2019-03-01T08:03:28.076Z,27.00
2019-03-01T08:09:32.397Z,22.20
2019-03-01T08:15:36.693Z,19.50
2019-03-01T08:21:42.724Z,17.07
2019-03-01T08:27:48.430Z,11.78
2019-03-01T08:33:53.010Z,14.23
2019-03-01T08:39:57.549Z,10.60
2019-03-01T08:46:01.865Z,11.70
2019-03-01T08:52:06.226Z,10.85
2019-03-01T08:58:10.572Z,9.33
2019-03-01T09:04:17.676Z,8.60
2019-03-01T09:10:20.943Z,9.48
2019-03-01T09:16:25.209Z,10.58
2019-03-01T09:22:29.455Z,9.75
2019-03-01T09:28:38.610Z,7.58
2019-03-01T09:34:39.729Z,6.95
2019-03-01T09:40:44.238Z,6.15
2019-03-01T09:46:48.429Z,6.70
2019-03-01T09:52:55.637Z,6.42
2019-03-01T09:58:58.668Z,7.05
2019-03-01T10:05:03.140Z,5.97
2019-03-01T10:11:07.338Z,6.15
2019-03-01T10:17:11.732Z,5.97
2019-03-01T10:23:15.976Z,5.80
2019-03-01T10:29:20.313Z,6.28
2019-03-01T10:35:24.503Z,6.20
2019-03-01T10:41:28.812Z,6.20
2019-03-01T10:47:33.005Z,5.75
2019-03-01T10:53:37.288Z,5.78
2019-03-01T10:59:41.475Z,5.33
2019-03-01T11:05:45.678Z,4.90
2019-03-01T11:11:49.863Z,3.65
2019-03-01T11:17:54.081Z,4.53
2019-03-01T11:23:58.351Z,4.83
2019-03-01T11:30:02.574Z,5.17
2019-03-01T11:36:06.933Z,5.25
2019-03-01T11:42:11.159Z,5.03
2019-03-01T11:48:15.677Z,4.00
2019-03-01T11:54:19.931Z,5.00
2019-03-01T12:00:24.695Z,4.28
2019-03-01T12:06:29.330Z,4.45
2019-03-01T12:12:33.903Z,4.33
2019-03-01T12:18:38.241Z,5.15
2019-03-01T12:24:42.536Z,5.50
2019-03-01T12:30:46.836Z,4.85
2019-03-01T12:36:51.151Z,4.60
2019-03-01T12:42:55.372Z,3.83
2019-03-01T12:48:59.556Z,3.47
2019-03-01T12:55:04.534Z,3.17
2019-03-01T13:01:08.760Z,3.02
2019-03-01T13:07:13.259Z,3.35
2019-03-01T13:13:18.352Z,3.00
2019-03-01T13:19:23.324Z,3.45
2019-03-01T13:25:29.314Z,3.17
2019-03-01T13:31:34.606Z,4.12
2019-03-01T13:37:38.898Z,3.25
2019-03-01T13:43:43.202Z,4.22
2019-03-01T13:49:47.532Z,3.30
2019-03-01T13:55:51.775Z,3.70
2019-03-01T14:01:56.124Z,3.50
2019-03-01T14:08:08.686Z,4.40
2019-03-01T14:14:06.266Z,4.12
2019-03-01T14:20:19.046Z,3.77
2019-03-01T14:26:19.436Z,4.67
2019-03-01T14:32:23.743Z,5.03
2019-03-01T14:38:30.080Z,4.78
2019-03-01T14:44:34.689Z,4.47
2019-03-01T14:50:38.959Z,5.65
2019-03-01T14:56:47.954Z,4.37
2019-03-01T15:03:16.460Z,5.03
2019-03-01T15:09:21.947Z,4.75
2019-03-01T15:15:29.957Z,7.15
2019-03-01T15:21:33.991Z,7.37
2019-03-01T15:27:40.180Z,8.65
2019-03-01T15:33:47.081Z,8.23
2019-03-01T15:39:51.221Z,8.13
2019-03-01T15:45:56.141Z,9.28
2019-03-01T15:52:00.452Z,10.90
2019-03-01T15:58:04.679Z,12.18
2019-03-01T16:04:08.952Z,11.43
2019-03-01T16:10:13.257Z,10.85
2019-03-01T16:16:17.656Z,12.07
2019-03-01T16:22:22.079Z,12.73
2019-03-01T16:28:27.544Z,12.18
2019-03-01T16:34:32.490Z,12.43
2019-03-01T16:40:36.803Z,12.95
2019-03-01T16:46:41.192Z,12.65
2019-03-01T16:52:45.464Z,12.47
2019-03-01T16:58:49.694Z,12.73
2019-03-01T17:04:54.037Z,12.73
2019-03-01T17:10:58.318Z,14.20
2019-03-01T17:17:02.517Z,14.13
2019-03-01T17:23:06.716Z,13.98
2019-03-01T17:29:10.932Z,14.65
2019-03-01T17:35:15.309Z,17.82
2019-03-01T17:41:19.552Z,16.48
2019-03-01T17:47:23.915Z,17.20
2019-03-01T17:53:28.199Z,15.95
2019-03-01T17:59:32.463Z,19.55
2019-03-01T18:05:37.083Z,18.15
2019-03-01T18:11:44.472Z,17.25
2019-03-01T18:17:48.962Z,17.07
2019-03-01T18:23:53.407Z,18.57
2019-03-01T18:29:57.690Z,17.52
2019-03-01T18:36:01.975Z,20.23
2019-03-01T18:42:06.189Z,20.08
2019-03-01T18:48:10.889Z,21.23
2019-03-01T18:54:15.421Z,20.65
2019-03-01T19:00:22.535Z,20.08
2019-03-01T19:06:28.682Z,30.32
2019-03-01T19:12:32.880Z,30.17
2019-03-01T19:18:38.080Z,29.67
2019-03-01T19:24:43.238Z,26.90
2019-03-01T19:30:49.097Z,27.60
2019-03-01T19:36:54.255Z,26.30
2019-03-01T19:42:58.442Z,27.25
2019-03-01T19:49:02.641Z,30.65
2019-03-01T19:55:07.973Z,30.25
2019-03-01T20:01:14.682Z,25.37
2019-03-01T20:07:19.827Z,27.07
2019-03-01T20:13:25.136Z,36.28
2019-03-01T20:19:29.432Z,33.38
2019-03-01T20:25:33.653Z,32.93
2019-03-01T20:31:40.573Z,28.70
2019-03-01T20:37:43.985Z,30.88
2019-03-01T20:43:48.236Z,33.65
2019-03-01T20:49:52.766Z,35.28
2019-03-01T20:55:56.974Z,25.55
2019-03-01T21:02:01.178Z,24.82
2019-03-01T21:08:05.361Z,25.43
2019-03-01T21:14:09.749Z,26.42
2019-03-01T21:20:15.938Z,29.12
2019-03-01T21:26:20.327Z,27.50
2019-03-01T21:32:24.488Z,26.62
2019-03-01T21:38:28.868Z,28.00
2019-03-01T21:44:33.078Z,27.35
2019-03-01T21:50:38.685Z,27.93
2019-03-01T21:56:55.381Z,34.58
2019-03-01T22:02:52.796Z,28.12
2019-03-01T22:08:55.198Z,29.12
2019-03-01T22:14:59.396Z,29.82
2019-03-01T22:21:03.830Z,30.05
2019-03-01T22:27:08.095Z,33.42
2019-03-01T22:33:12.260Z,38.95
2019-03-01T22:39:16.593Z,51.70
2019-03-01T22:45:21.613Z,50.28
2019-03-01T22:51:25.985Z,32.55
2019-03-01T22:57:30.179Z,31.80
2019-03-01T23:03:34.521Z,50.55
2019-03-01T23:09:38.713Z,33.13
2019-03-01T23:15:43.579Z,31.25
2019-03-01T23:21:48.851Z,32.70
2019-03-01T23:27:53.066Z,33.23
2019-03-01T23:33:57.332Z,34.95
2019-03-01T23:40:02.422Z,33.65
2019-03-01T23:46:06.722Z,36.15
2019-03-01T23:52:10.997Z,37.00
2019-03-01T23:58:15.885Z,47.55
